sensor_id;sensor_type;location;lat;lon;timestamp;temperature;humidity
57564;DHT22;43400;45.926;6.724;2022-09-03T00:00:16;16.30;99.90
57564;DHT22;43400;45.926;6.724;2022-09-03T00:02:59;16.30;99.90
57564;DHT22;43400;45.926;6.724;2022-09-03T00:05:42;16.20;99.90
57564;DHT22;43400;45.926;6.724;2022-09-03T00:08:47;16.10;99.90
57564;DHT22;43400;45.926;6.724;2022-09-03T00:14:56;16.10;99.90
57564;DHT22;43400;45.926;6.724;2022-09-03T00:17:38;16.00;99.90
57564;DHT22;43400;45.926;6.724;2022-09-03T00:20:25;16.00;99.90
57564;DHT22;43400;45.926;6.724;2022-09-03T00:23:03;16.00;99.90
57564;DHT22;43400;45.926;6.724;2022-09-03T00:25:42;15.90;99.90
57564;DHT22;43400;45.926;6.724;2022-09-03T00:28:45;15.90;99.90
57564;DHT22;43400;45.926;6.724;2022-09-03T00:31:49;15.90;99.90
57564;DHT22;43400;45.926;6.724;2022-09-03T00:34:35;15.90;99.90
57564;DHT22;43400;45.926;6.724;2022-09-03T00:37:09;16.00;99.90
57564;DHT22;43400;45.926;6.724;2022-09-03T00:39:41;15.90;99.90
57564;DHT22;43400;45.926;6.724;2022-09-03T00:45:17;16.00;99.90
57564;DHT22;43400;45.926;6.724;2022-09-03T01:21:43;15.90;99.90
57564;DHT22;43400;45.926;6.724;2022-09-03T01:30:13;15.80;99.90
57564;DHT22;43400;45.926;6.724;2022-09-03T01:32:58;15.80;99.90
57564;DHT22;43400;45.926;6.724;2022-09-03T01:35:43;15.80;99.90
57564;DHT22;43400;45.926;6.724;2022-09-03T01:38:53;15.70;99.90
57564;DHT22;43400;45.926;6.724;2022-09-03T01:46:49;15.80;99.90
57564;DHT22;43400;45.926;6.724;2022-09-03T01:49:33;15.90;99.90
57564;DHT22;43400;45.926;6.724;2022-09-03T01:52:16;15.80;99.90
57564;DHT22;43400;45.926;6.724;2022-09-03T02:02:43;15.70;99.90
57564;DHT22;43400;45.926;6.724;2022-09-03T02:05:24;15.80;99.90
57564;DHT22;43400;45.926;6.724;2022-09-03T02:08:00;15.70;99.90
57564;DHT22;43400;45.926;6.724;2022-09-03T02:13:33;15.60;99.90
57564;DHT22;43400;45.926;6.724;2022-09-03T02:16:14;15.70;99.90
57564;DHT22;43400;45.926;6.724;2022-09-03T02:18:53;15.70;99.90
57564;DHT22;43400;45.926;6.724;2022-09-03T02:21:27;15.80;99.90
57564;DHT22;43400;45.926;6.724;2022-09-03T02:24:00;15.80;99.90
57564;DHT22;43400;45.926;6.724;2022-09-03T02:26:33;15.80;99.90
57564;DHT22;43400;45.926;6.724;2022-09-03T02:29:05;15.80;99.90
57564;DHT22;43400;45.926;6.724;2022-09-03T02:31:37;15.80;99.90
57564;DHT22;43400;45.926;6.724;2022-09-03T02:34:08;15.70;99.90
57564;DHT22;43400;45.926;6.724;2022-09-03T02:36:43;15.80;99.90
57564;DHT22;43400;45.926;6.724;2022-09-03T02:39:15;15.70;99.90
57564;DHT22;43400;45.926;6.724;2022-09-03T02:41:53;15.70;99.90
57564;DHT22;43400;45.926;6.724;2022-09-03T02:44:29;15.70;99.90
57564;DHT22;43400;45.926;6.724;2022-09-03T02:47:04;15.70;99.90
57564;DHT22;43400;45.926;6.724;2022-09-03T02:49:36;15.80;99.90
57564;DHT22;43400;45.926;6.724;2022-09-03T02:52:09;15.70;99.90
57564;DHT22;43400;45.926;6.724;2022-09-03T02:54:41;15.70;99.90
57564;DHT22;43400;45.926;6.724;2022-09-03T02:57:15;15.60;99.90
57564;DHT22;43400;45.926;6.724;2022-09-03T02:59:46;15.60;99.90
57564;DHT22;43400;45.926;6.724;2022-09-03T03:02:18;15.60;99.90
57564;DHT22;43400;45.926;6.724;2022-09-03T03:04:49;15.60;99.90
57564;DHT22;43400;45.926;6.724;2022-09-03T03:07:21;15.60;99.90
57564;DHT22;43400;45.926;6.724;2022-09-03T03:09:52;15.60;99.90
57564;DHT22;43400;45.926;6.724;2022-09-03T03:12:24;15.60;99.90
57564;DHT22;43400;45.926;6.724;2022-09-03T03:14:56;15.70;99.90
57564;DHT22;43400;45.926;6.724;2022-09-03T03:17:27;15.70;99.90
57564;DHT22;43400;45.926;6.724;2022-09-03T03:19:59;15.70;99.90
57564;DHT22;43400;45.926;6.724;2022-09-03T03:22:30;15.70;99.90
57564;DHT22;43400;45.926;6.724;2022-09-03T03:25:02;15.60;99.90
57564;DHT22;43400;45.926;6.724;2022-09-03T03:27:34;15.60;99.90
57564;DHT22;43400;45.926;6.724;2022-09-03T03:30:06;15.60;99.90
57564;DHT22;43400;45.926;6.724;2022-09-03T03:32:38;15.60;99.90
57564;DHT22;43400;45.926;6.724;2022-09-03T03:35:10;15.50;99.90
57564;DHT22;43400;45.926;6.724;2022-09-03T03:37:41;15.50;99.90
57564;DHT22;43400;45.926;6.724;2022-09-03T03:40:14;15.40;99.90
57564;DHT22;43400;45.926;6.724;2022-09-03T03:42:45;15.50;99.90
57564;DHT22;43400;45.926;6.724;2022-09-03T03:45:17;15.50;99.90
57564;DHT22;43400;45.926;6.724;2022-09-03T03:47:49;15.60;99.90
57564;DHT22;43400;45.926;6.724;2022-09-03T03:50:20;15.60;99.90
57564;DHT22;43400;45.926;6.724;2022-09-03T03:52:52;15.60;99.90
57564;DHT22;43400;45.926;6.724;2022-09-03T03:55:23;15.50;99.90
57564;DHT22;43400;45.926;6.724;2022-09-03T03:57:55;15.60;99.90
57564;DHT22;43400;45.926;6.724;2022-09-03T04:00:28;15.60;99.90
57564;DHT22;43400;45.926;6.724;2022-09-03T04:03:00;15.50;99.90
57564;DHT22;43400;45.926;6.724;2022-09-03T04:05:31;15.40;99.90
57564;DHT22;43400;45.926;6.724;2022-09-03T04:08:03;15.40;99.90
57564;DHT22;43400;45.926;6.724;2022-09-03T04:10:35;15.40;99.90
57564;DHT22;43400;45.926;6.724;2022-09-03T04:13:07;15.50;99.90
57564;DHT22;43400;45.926;6.724;2022-09-03T04:15:38;15.50;99.90
57564;DHT22;43400;45.926;6.724;2022-09-03T04:18:10;15.50;99.90
57564;DHT22;43400;45.926;6.724;2022-09-03T04:20:42;15.50;99.90
57564;DHT22;43400;45.926;6.724;2022-09-03T04:23:14;15.40;99.90
57564;DHT22;43400;45.926;6.724;2022-09-03T04:25:51;15.40;99.90
57564;DHT22;43400;45.926;6.724;2022-09-03T04:28:23;15.40;99.90
57564;DHT22;43400;45.926;6.724;2022-09-03T04:31:00;15.50;99.90
57564;DHT22;43400;45.926;6.724;2022-09-03T04:33:32;15.50;99.90
57564;DHT22;43400;45.926;6.724;2022-09-03T04:36:15;15.50;99.90
57564;DHT22;43400;45.926;6.724;2022-09-03T04:38:49;15.50;99.90
57564;DHT22;43400;45.926;6.724;2022-09-03T04:41:23;15.50;99.90
57564;DHT22;43400;45.926;6.724;2022-09-03T04:43:56;15.50;99.90
57564;DHT22;43400;45.926;6.724;2022-09-03T04:46:28;15.40;99.90
57564;DHT22;43400;45.926;6.724;2022-09-03T04:49:01;15.30;99.90
57564;DHT22;43400;45.926;6.724;2022-09-03T04:51:32;15.30;99.90
57564;DHT22;43400;45.926;6.724;2022-09-03T04:54:04;15.30;99.90
57564;DHT22;43400;45.926;6.724;2022-09-03T04:56:37;15.30;99.90
57564;DHT22;43400;45.926;6.724;2022-09-03T04:59:08;15.30;99.90
57564;DHT22;43400;45.926;6.724;2022-09-03T05:01:42;15.30;99.90
57564;DHT22;43400;45.926;6.724;2022-09-03T05:04:14;15.20;99.90
57564;DHT22;43400;45.926;6.724;2022-09-03T05:06:45;15.20;99.90
57564;DHT22;43400;45.926;6.724;2022-09-03T05:09:17;15.20;99.90
57564;DHT22;43400;45.926;6.724;2022-09-03T05:11:48;15.10;99.90
57564;DHT22;43400;45.926;6.724;2022-09-03T05:14:20;15.20;99.90
57564;DHT22;43400;45.926;6.724;2022-09-03T05:16:51;15.10;99.90
57564;DHT22;43400;45.926;6.724;2022-09-03T05:19:23;15.20;99.90
57564;DHT22;43400;45.926;6.724;2022-09-03T05:21:55;15.20;99.90
57564;DHT22;43400;45.926;6.724;2022-09-03T05:24:26;15.20;99.90
57564;DHT22;43400;45.926;6.724;2022-09-03T05:26:58;15.20;99.90
57564;DHT22;43400;45.926;6.724;2022-09-03T05:29:29;15.20;99.90
57564;DHT22;43400;45.926;6.724;2022-09-03T05:32:01;15.20;99.90
57564;DHT22;43400;45.926;6.724;2022-09-03T05:34:32;15.20;99.90
57564;DHT22;43400;45.926;6.724;2022-09-03T05:37:04;15.20;99.90
57564;DHT22;43400;45.926;6.724;2022-09-03T05:39:36;15.20;99.90
57564;DHT22;43400;45.926;6.724;2022-09-03T05:42:07;15.20;99.90
57564;DHT22;43400;45.926;6.724;2022-09-03T05:44:39;15.30;99.90
57564;DHT22;43400;45.926;6.724;2022-09-03T05:47:10;15.30;99.90
57564;DHT22;43400;45.926;6.724;2022-09-03T05:49:42;15.30;99.90
57564;DHT22;43400;45.926;6.724;2022-09-03T05:52:13;15.30;99.90
57564;DHT22;43400;45.926;6.724;2022-09-03T05:54:45;15.30;99.90
57564;DHT22;43400;45.926;6.724;2022-09-03T05:57:17;15.40;99.90
57564;DHT22;43400;45.926;6.724;2022-09-03T05:59:48;15.40;99.90
57564;DHT22;43400;45.926;6.724;2022-09-03T06:02:20;15.40;99.90
57564;DHT22;43400;45.926;6.724;2022-09-03T06:04:51;15.30;99.90
57564;DHT22;43400;45.926;6.724;2022-09-03T06:07:24;15.30;99.90
57564;DHT22;43400;45.926;6.724;2022-09-03T06:09:55;15.20;99.90
57564;DHT22;43400;45.926;6.724;2022-09-03T06:12:26;15.10;99.90
57564;DHT22;43400;45.926;6.724;2022-09-03T06:14:58;15.10;99.90
57564;DHT22;43400;45.926;6.724;2022-09-03T06:17:30;15.20;99.90
57564;DHT22;43400;45.926;6.724;2022-09-03T06:20:01;15.20;99.90
57564;DHT22;43400;45.926;6.724;2022-09-03T06:22:33;15.30;99.90
57564;DHT22;43400;45.926;6.724;2022-09-03T06:25:05;15.30;99.90
57564;DHT22;43400;45.926;6.724;2022-09-03T06:27:36;15.40;99.90
57564;DHT22;43400;45.926;6.724;2022-09-03T06:30:08;15.40;99.90
57564;DHT22;43400;45.926;6.724;2022-09-03T06:32:46;15.30;99.90
57564;DHT22;43400;45.926;6.724;2022-09-03T06:35:18;15.30;99.90
57564;DHT22;43400;45.926;6.724;2022-09-03T06:37:49;15.30;99.90
57564;DHT22;43400;45.926;6.724;2022-09-03T06:40:21;15.40;99.90
57564;DHT22;43400;45.926;6.724;2022-09-03T06:42:56;15.50;99.90
57564;DHT22;43400;45.926;6.724;2022-09-03T06:45:29;15.50;99.90
57564;DHT22;43400;45.926;6.724;2022-09-03T06:48:01;15.70;99.90
57564;DHT22;43400;45.926;6.724;2022-09-03T06:50:32;15.90;99.90
57564;DHT22;43400;45.926;6.724;2022-09-03T06:53:04;16.10;99.90
57564;DHT22;43400;45.926;6.724;2022-09-03T06:55:35;16.20;99.90
57564;DHT22;43400;45.926;6.724;2022-09-03T06:58:07;16.30;99.90
57564;DHT22;43400;45.926;6.724;2022-09-03T07:00:38;16.30;99.90
57564;DHT22;43400;45.926;6.724;2022-09-03T07:03:10;16.30;99.90
57564;DHT22;43400;45.926;6.724;2022-09-03T07:05:42;16.40;99.90
57564;DHT22;43400;45.926;6.724;2022-09-03T07:08:13;16.40;99.90
57564;DHT22;43400;45.926;6.724;2022-09-03T07:10:45;16.50;99.90
57564;DHT22;43400;45.926;6.724;2022-09-03T07:13:17;16.50;99.90
57564;DHT22;43400;45.926;6.724;2022-09-03T07:15:58;16.40;99.90
57564;DHT22;43400;45.926;6.724;2022-09-03T07:18:30;16.40;99.90
57564;DHT22;43400;45.926;6.724;2022-09-03T07:21:04;16.50;99.90
57564;DHT22;43400;45.926;6.724;2022-09-03T07:23:37;16.50;99.90
57564;DHT22;43400;45.926;6.724;2022-09-03T07:26:17;16.70;99.90
57564;DHT22;43400;45.926;6.724;2022-09-03T07:28:50;16.80;99.90
57564;DHT22;43400;45.926;6.724;2022-09-03T07:31:27;16.90;99.90
57564;DHT22;43400;45.926;6.724;2022-09-03T07:34:04;17.00;99.90
57564;DHT22;43400;45.926;6.724;2022-09-03T07:36:37;16.80;99.90
57564;DHT22;43400;45.926;6.724;2022-09-03T07:39:10;16.70;99.90
57564;DHT22;43400;45.926;6.724;2022-09-03T07:41:42;16.80;99.90
57564;DHT22;43400;45.926;6.724;2022-09-03T07:44:16;16.90;99.90
57564;DHT22;43400;45.926;6.724;2022-09-03T07:46:47;17.00;99.90
57564;DHT22;43400;45.926;6.724;2022-09-03T07:49:20;16.90;99.90
57564;DHT22;43400;45.926;6.724;2022-09-03T07:51:51;17.00;99.90
57564;DHT22;43400;45.926;6.724;2022-09-03T07:54:23;17.00;99.90
57564;DHT22;43400;45.926;6.724;2022-09-03T07:56:55;17.10;99.90
57564;DHT22;43400;45.926;6.724;2022-09-03T07:59:26;16.90;99.90
57564;DHT22;43400;45.926;6.724;2022-09-03T08:01:58;17.00;99.90
57564;DHT22;43400;45.926;6.724;2022-09-03T08:04:29;16.90;99.90
57564;DHT22;43400;45.926;6.724;2022-09-03T08:07:01;17.00;99.90
57564;DHT22;43400;45.926;6.724;2022-09-03T08:09:32;17.00;99.90
57564;DHT22;43400;45.926;6.724;2022-09-03T08:12:04;17.00;99.90
57564;DHT22;43400;45.926;6.724;2022-09-03T08:14:36;17.10;99.90
57564;DHT22;43400;45.926;6.724;2022-09-03T08:17:07;17.20;99.90
57564;DHT22;43400;45.926;6.724;2022-09-03T08:19:39;17.40;99.90
57564;DHT22;43400;45.926;6.724;2022-09-03T08:22:10;17.70;99.90
57564;DHT22;43400;45.926;6.724;2022-09-03T08:24:42;17.80;99.90
57564;DHT22;43400;45.926;6.724;2022-09-03T08:27:13;17.90;99.90
57564;DHT22;43400;45.926;6.724;2022-09-03T08:29:45;18.00;99.90
57564;DHT22;43400;45.926;6.724;2022-09-03T08:32:17;18.10;99.90
57564;DHT22;43400;45.926;6.724;2022-09-03T08:34:48;18.20;99.90
57564;DHT22;43400;45.926;6.724;2022-09-03T08:37:20;18.20;99.90
57564;DHT22;43400;45.926;6.724;2022-09-03T08:39:52;18.20;99.90
57564;DHT22;43400;45.926;6.724;2022-09-03T08:42:50;18.10;99.90
57564;DHT22;43400;45.926;6.724;2022-09-03T08:45:27;18.10;99.90
57564;DHT22;43400;45.926;6.724;2022-09-03T08:48:16;18.00;99.90
57564;DHT22;43400;45.926;6.724;2022-09-03T08:50:51;18.20;99.90
57564;DHT22;43400;45.926;6.724;2022-09-03T08:56:31;18.20;99.90
57564;DHT22;43400;45.926;6.724;2022-09-03T08:59:06;18.30;99.90
57564;DHT22;43400;45.926;6.724;2022-09-03T09:10:47;19.10;99.90
57564;DHT22;43400;45.926;6.724;2022-09-03T09:22:09;19.50;98.80
57564;DHT22;43400;45.926;6.724;2022-09-03T09:24:44;19.70;99.30
57564;DHT22;43400;45.926;6.724;2022-09-03T09:27:16;19.90;96.60
57564;DHT22;43400;45.926;6.724;2022-09-03T09:29:49;20.00;96.00
57564;DHT22;43400;45.926;6.724;2022-09-03T09:32:21;20.10;91.90
57564;DHT22;43400;45.926;6.724;2022-09-03T09:34:53;20.30;86.90
57564;DHT22;43400;45.926;6.724;2022-09-03T09:37:24;20.60;88.30
57564;DHT22;43400;45.926;6.724;2022-09-03T09:39:58;20.50;87.50
57564;DHT22;43400;45.926;6.724;2022-09-03T09:42:30;20.50;88.60
57564;DHT22;43400;45.926;6.724;2022-09-03T09:45:09;20.40;91.20
57564;DHT22;43400;45.926;6.724;2022-09-03T09:47:41;20.60;91.30
57564;DHT22;43400;45.926;6.724;2022-09-03T09:50:18;20.80;92.70
57564;DHT22;43400;45.926;6.724;2022-09-03T09:53:03;21.00;83.40
57564;DHT22;43400;45.926;6.724;2022-09-03T09:55:35;21.20;84.60
57564;DHT22;43400;45.926;6.724;2022-09-03T09:58:20;21.50;85.20
57564;DHT22;43400;45.926;6.724;2022-09-03T10:01:11;22.00;87.40
57564;DHT22;43400;45.926;6.724;2022-09-03T10:03:54;22.40;89.10
57564;DHT22;43400;45.926;6.724;2022-09-03T10:06:30;22.40;86.20
57564;DHT22;43400;45.926;6.724;2022-09-03T10:09:11;22.30;82.80
57564;DHT22;43400;45.926;6.724;2022-09-03T10:12:01;22.40;84.90
57564;DHT22;43400;45.926;6.724;2022-09-03T10:14:46;22.40;86.80
57564;DHT22;43400;45.926;6.724;2022-09-03T10:17:59;22.60;88.60
57564;DHT22;43400;45.926;6.724;2022-09-03T10:20:42;22.60;81.40
57564;DHT22;43400;45.926;6.724;2022-09-03T10:23:26;22.50;81.90
57564;DHT22;43400;45.926;6.724;2022-09-03T10:26:13;22.50;80.40
57564;DHT22;43400;45.926;6.724;2022-09-03T10:28:50;22.90;79.50
57564;DHT22;43400;45.926;6.724;2022-09-03T10:37:18;23.50;77.40
57564;DHT22;43400;45.926;6.724;2022-09-03T10:45:42;23.90;77.10
57564;DHT22;43400;45.926;6.724;2022-09-03T11:00:09;25.50;68.00
57564;DHT22;43400;45.926;6.724;2022-09-03T11:05:59;26.00;65.50
57564;DHT22;43400;45.926;6.724;2022-09-03T11:08:38;26.70;64.10
57564;DHT22;43400;45.926;6.724;2022-09-03T11:11:19;26.20;63.50
57564;DHT22;43400;45.926;6.724;2022-09-03T11:14:09;25.40;66.10
57564;DHT22;43400;45.926;6.724;2022-09-03T11:16:48;24.90;66.60
57564;DHT22;43400;45.926;6.724;2022-09-03T11:22:24;25.40;65.20
57564;DHT22;43400;45.926;6.724;2022-09-03T11:24:58;25.00;64.70
57564;DHT22;43400;45.926;6.724;2022-09-03T11:27:50;24.70;66.70
57564;DHT22;43400;45.926;6.724;2022-09-03T11:30:32;24.20;66.70
57564;DHT22;43400;45.926;6.724;2022-09-03T11:33:09;24.30;68.00
57564;DHT22;43400;45.926;6.724;2022-09-03T11:35:41;24.60;66.50
57564;DHT22;43400;45.926;6.724;2022-09-03T11:41:10;25.10;68.30
57564;DHT22;43400;45.926;6.724;2022-09-03T11:43:42;25.30;65.20
57564;DHT22;43400;45.926;6.724;2022-09-03T11:48:53;26.40;65.60
57564;DHT22;43400;45.926;6.724;2022-09-03T11:51:36;27.70;62.70
57564;DHT22;43400;45.926;6.724;2022-09-03T11:56:48;29.30;58.80
57564;DHT22;43400;45.926;6.724;2022-09-03T11:59:24;29.40;59.00
57564;DHT22;43400;45.926;6.724;2022-09-03T12:01:59;29.30;56.80
57564;DHT22;43400;45.926;6.724;2022-09-03T12:07:51;28.40;58.00
57564;DHT22;43400;45.926;6.724;2022-09-03T12:10:35;27.50;57.60
57564;DHT22;43400;45.926;6.724;2022-09-03T12:16:22;26.10;57.30
57564;DHT22;43400;45.926;6.724;2022-09-03T12:19:05;26.00;58.60
57564;DHT22;43400;45.926;6.724;2022-09-03T12:21:39;25.70;59.00
57564;DHT22;43400;45.926;6.724;2022-09-03T12:24:11;25.50;58.10
57564;DHT22;43400;45.926;6.724;2022-09-03T12:26:42;25.50;59.20
57564;DHT22;43400;45.926;6.724;2022-09-03T12:29:23;25.30;59.10
57564;DHT22;43400;45.926;6.724;2022-09-03T12:31:55;25.20;60.00
57564;DHT22;43400;45.926;6.724;2022-09-03T12:34:35;25.30;61.20
57564;DHT22;43400;45.926;6.724;2022-09-03T12:37:19;25.30;61.20
57564;DHT22;43400;45.926;6.724;2022-09-03T12:39:52;25.20;61.80
57564;DHT22;43400;45.926;6.724;2022-09-03T12:42:30;25.50;61.00
57564;DHT22;43400;45.926;6.724;2022-09-03T12:45:08;25.80;60.80
57564;DHT22;43400;45.926;6.724;2022-09-03T12:47:42;25.80;61.00
57564;DHT22;43400;45.926;6.724;2022-09-03T12:50:22;26.50;60.20
57564;DHT22;43400;45.926;6.724;2022-09-03T12:53:00;27.60;59.50
57564;DHT22;43400;45.926;6.724;2022-09-03T12:58:20;28.50;57.20
57564;DHT22;43400;45.926;6.724;2022-09-03T13:06:12;28.40;55.10
57564;DHT22;43400;45.926;6.724;2022-09-03T13:08:50;28.90;57.30
57564;DHT22;43400;45.926;6.724;2022-09-03T13:11:23;29.10;53.90
57564;DHT22;43400;45.926;6.724;2022-09-03T13:14:06;29.20;54.70
57564;DHT22;43400;45.926;6.724;2022-09-03T13:22:30;30.50;51.30
57564;DHT22;43400;45.926;6.724;2022-09-03T13:33:33;31.40;47.50
57564;DHT22;43400;45.926;6.724;2022-09-03T13:36:36;32.00;48.80
57564;DHT22;43400;45.926;6.724;2022-09-03T13:39:21;30.80;48.70
57564;DHT22;43400;45.926;6.724;2022-09-03T13:42:02;30.50;49.60
57564;DHT22;43400;45.926;6.724;2022-09-03T13:44:44;31.30;48.80
57564;DHT22;43400;45.926;6.724;2022-09-03T13:47:46;31.50;48.60
57564;DHT22;43400;45.926;6.724;2022-09-03T13:50:20;31.70;48.40
57564;DHT22;43400;45.926;6.724;2022-09-03T13:55:52;30.00;50.00
57564;DHT22;43400;45.926;6.724;2022-09-03T14:01:25;28.10;54.70
57564;DHT22;43400;45.926;6.724;2022-09-03T14:04:00;27.40;55.30
57564;DHT22;43400;45.926;6.724;2022-09-03T14:12:43;27.00;58.70
57564;DHT22;43400;45.926;6.724;2022-09-03T14:18:07;29.10;56.00
57564;DHT22;43400;45.926;6.724;2022-09-03T14:20:45;29.60;55.60
57564;DHT22;43400;45.926;6.724;2022-09-03T14:23:32;29.30;54.60
57564;DHT22;43400;45.926;6.724;2022-09-03T14:26:15;28.60;54.80
57564;DHT22;43400;45.926;6.724;2022-09-03T14:28:58;27.60;56.30
57564;DHT22;43400;45.926;6.724;2022-09-03T14:37:44;26.40;57.00
57564;DHT22;43400;45.926;6.724;2022-09-03T14:40:41;26.40;58.50
57564;DHT22;43400;45.926;6.724;2022-09-03T15:00:16;25.90;64.20
57564;DHT22;43400;45.926;6.724;2022-09-03T15:11:18;25.40;62.90
57564;DHT22;43400;45.926;6.724;2022-09-03T15:16:59;25.10;63.70
57564;DHT22;43400;45.926;6.724;2022-09-03T15:25:53;24.60;66.10
57564;DHT22;43400;45.926;6.724;2022-09-03T15:29:00;24.60;67.90
57564;DHT22;43400;45.926;6.724;2022-09-03T15:31:56;24.40;69.00
57564;DHT22;43400;45.926;6.724;2022-09-03T15:35:01;24.20;69.20
57564;DHT22;43400;45.926;6.724;2022-09-03T15:40:32;24.40;69.40
57564;DHT22;43400;45.926;6.724;2022-09-03T15:43:08;25.00;66.10
57564;DHT22;43400;45.926;6.724;2022-09-03T15:51:24;26.40;64.10
57564;DHT22;43400;45.926;6.724;2022-09-03T15:54:11;26.40;61.70
57564;DHT22;43400;45.926;6.724;2022-09-03T15:59:54;26.00;63.30
57564;DHT22;43400;45.926;6.724;2022-09-03T16:02:37;25.90;64.40
57564;DHT22;43400;45.926;6.724;2022-09-03T16:08:28;25.50;62.90
57564;DHT22;43400;45.926;6.724;2022-09-03T16:11:17;25.30;63.90
57564;DHT22;43400;45.926;6.724;2022-09-03T16:17:02;24.90;65.60
57564;DHT22;43400;45.926;6.724;2022-09-03T16:25:29;24.40;67.20
57564;DHT22;43400;45.926;6.724;2022-09-03T16:28:23;24.30;69.10
57564;DHT22;43400;45.926;6.724;2022-09-03T16:34:06;24.20;69.20
57564;DHT22;43400;45.926;6.724;2022-09-03T16:56:45;23.60;73.20
57564;DHT22;43400;45.926;6.724;2022-09-03T17:19:40;23.20;77.80
57564;DHT22;43400;45.926;6.724;2022-09-03T17:25:02;23.10;79.10
57564;DHT22;43400;45.926;6.724;2022-09-03T17:30:54;23.00;76.90
57564;DHT22;43400;45.926;6.724;2022-09-03T17:49:51;22.50;80.90
57564;DHT22;43400;45.926;6.724;2022-09-03T17:52:43;22.50;81.90
57564;DHT22;43400;45.926;6.724;2022-09-03T17:58:13;22.40;81.40
57564;DHT22;43400;45.926;6.724;2022-09-03T18:03:44;22.00;87.80
57564;DHT22;43400;45.926;6.724;2022-09-03T18:06:27;21.90;88.10
57564;DHT22;43400;45.926;6.724;2022-09-03T18:11:38;21.70;82.70
57564;DHT22;43400;45.926;6.724;2022-09-03T18:14:27;21.70;84.60
57564;DHT22;43400;45.926;6.724;2022-09-03T18:20:05;21.70;85.70
57564;DHT22;43400;45.926;6.724;2022-09-03T18:22:49;21.70;87.40
57564;DHT22;43400;45.926;6.724;2022-09-03T18:25:25;21.50;92.20
57564;DHT22;43400;45.926;6.724;2022-09-03T18:28:02;21.40;91.90
57564;DHT22;43400;45.926;6.724;2022-09-03T18:30:35;21.20;92.60
57564;DHT22;43400;45.926;6.724;2022-09-03T18:33:06;21.10;94.60
57564;DHT22;43400;45.926;6.724;2022-09-03T18:35:38;21.10;95.80
57564;DHT22;43400;45.926;6.724;2022-09-03T18:38:12;20.90;97.10
57564;DHT22;43400;45.926;6.724;2022-09-03T18:40:53;20.80;98.80
57564;DHT22;43400;45.926;6.724;2022-09-03T18:52:24;20.50;99.90
57564;DHT22;43400;45.926;6.724;2022-09-03T19:01:38;20.30;99.90
57564;DHT22;43400;45.926;6.724;2022-09-03T19:10:00;20.00;99.90
57564;DHT22;43400;45.926;6.724;2022-09-03T19:15:36;19.80;99.90
57564;DHT22;43400;45.926;6.724;2022-09-03T19:21:27;19.90;99.90
57564;DHT22;43400;45.926;6.724;2022-09-03T19:24:01;19.80;99.90
57564;DHT22;43400;45.926;6.724;2022-09-03T19:26:39;19.80;99.90
57564;DHT22;43400;45.926;6.724;2022-09-03T19:30:12;19.80;99.90
57564;DHT22;43400;45.926;6.724;2022-09-03T19:32:24;19.70;99.90
57564;DHT22;43400;45.926;6.724;2022-09-03T19:40:50;19.50;99.90
57564;DHT22;43400;45.926;6.724;2022-09-03T19:43:28;19.50;99.90
57564;DHT22;43400;45.926;6.724;2022-09-03T19:46:21;19.50;99.90
57564;DHT22;43400;45.926;6.724;2022-09-03T19:54:40;19.30;99.90
57564;DHT22;43400;45.926;6.724;2022-09-03T19:57:14;19.20;99.90
57564;DHT22;43400;45.926;6.724;2022-09-03T19:59:48;19.00;99.90
57564;DHT22;43400;45.926;6.724;2022-09-03T20:02:20;18.90;99.90
57564;DHT22;43400;45.926;6.724;2022-09-03T20:04:57;18.90;99.90
57564;DHT22;43400;45.926;6.724;2022-09-03T20:07:31;19.00;99.90
57564;DHT22;43400;45.926;6.724;2022-09-03T20:10:09;18.90;99.90
57564;DHT22;43400;45.926;6.724;2022-09-03T20:12:46;19.00;99.90
57564;DHT22;43400;45.926;6.724;2022-09-03T20:15:22;19.00;99.90
57564;DHT22;43400;45.926;6.724;2022-09-03T20:20:52;18.80;99.90
57564;DHT22;43400;45.926;6.724;2022-09-03T20:26:39;18.90;99.90
57564;DHT22;43400;45.926;6.724;2022-09-03T20:29:22;18.90;99.90
57564;DHT22;43400;45.926;6.724;2022-09-03T20:32:15;18.80;99.90
57564;DHT22;43400;45.926;6.724;2022-09-03T20:37:45;18.80;99.90
57564;DHT22;43400;45.926;6.724;2022-09-03T20:40:28;18.80;99.90
57564;DHT22;43400;45.926;6.724;2022-09-03T20:54:29;18.60;99.90
57564;DHT22;43400;45.926;6.724;2022-09-03T21:00:16;18.40;99.90
57564;DHT22;43400;45.926;6.724;2022-09-03T21:03:18;18.50;99.90
57564;DHT22;43400;45.926;6.724;2022-09-03T21:11:39;18.40;99.90
57564;DHT22;43400;45.926;6.724;2022-09-03T21:14:41;18.40;99.90
57564;DHT22;43400;45.926;6.724;2022-09-03T21:17:51;18.40;99.90
57564;DHT22;43400;45.926;6.724;2022-09-03T21:20:43;18.40;99.90
57564;DHT22;43400;45.926;6.724;2022-09-03T21:23:26;18.30;99.90
57564;DHT22;43400;45.926;6.724;2022-09-03T21:26:10;18.30;99.90
57564;DHT22;43400;45.926;6.724;2022-09-03T21:29:12;18.30;99.90
57564;DHT22;43400;45.926;6.724;2022-09-03T21:32:01;18.40;99.90
57564;DHT22;43400;45.926;6.724;2022-09-03T21:37:24;18.50;99.90
57564;DHT22;43400;45.926;6.724;2022-09-03T21:39:56;18.40;99.90
57564;DHT22;43400;45.926;6.724;2022-09-03T21:43:00;18.30;99.90
57564;DHT22;43400;45.926;6.724;2022-09-03T21:48:36;18.40;99.90
57564;DHT22;43400;45.926;6.724;2022-09-03T21:52:01;18.40;99.90
57564;DHT22;43400;45.926;6.724;2022-09-03T21:54:11;18.50;99.90
57564;DHT22;43400;45.926;6.724;2022-09-03T22:00:11;18.40;99.90
57564;DHT22;43400;45.926;6.724;2022-09-03T22:02:44;18.30;99.90
57564;DHT22;43400;45.926;6.724;2022-09-03T22:05:16;18.30;99.90
57564;DHT22;43400;45.926;6.724;2022-09-03T22:08:17;18.40;99.90
57564;DHT22;43400;45.926;6.724;2022-09-03T22:11:38;18.40;99.90
57564;DHT22;43400;45.926;6.724;2022-09-03T22:14:17;18.30;99.90
57564;DHT22;43400;45.926;6.724;2022-09-03T22:17:05;18.30;99.90
57564;DHT22;43400;45.926;6.724;2022-09-03T22:19:41;18.20;99.90
57564;DHT22;43400;45.926;6.724;2022-09-03T22:22:36;18.30;99.90
57564;DHT22;43400;45.926;6.724;2022-09-03T22:40:25;18.90;92.40
57564;DHT22;43400;45.926;6.724;2022-09-03T22:43:08;18.90;91.00
57564;DHT22;43400;45.926;6.724;2022-09-03T22:51:18;18.70;91.40
57564;DHT22;43400;45.926;6.724;2022-09-03T22:56:21;18.60;91.80
57564;DHT22;43400;45.926;6.724;2022-09-03T23:07:51;18.00;96.20
57564;DHT22;43400;45.926;6.724;2022-09-03T23:10:33;17.80;99.70
57564;DHT22;43400;45.926;6.724;2022-09-03T23:13:27;17.70;99.90
57564;DHT22;43400;45.926;6.724;2022-09-03T23:16:28;17.50;99.90
57564;DHT22;43400;45.926;6.724;2022-09-03T23:19:14;17.30;99.90
57564;DHT22;43400;45.926;6.724;2022-09-03T23:21:59;17.30;99.90
57564;DHT22;43400;45.926;6.724;2022-09-03T23:24:48;17.10;99.90
57564;DHT22;43400;45.926;6.724;2022-09-03T23:27:29;17.10;99.90
57564;DHT22;43400;45.926;6.724;2022-09-03T23:30:03;17.00;99.90